createdAt,value
2023-03-12T00:00:44.836Z,97853.88
2023-03-12T00:03:48.555Z,97852.28
2023-03-12T00:06:51.441Z,97847.19
2023-03-12T00:09:55.636Z,97861.81
2023-03-12T00:12:58.628Z,97859.63
2023-03-12T00:16:06.109Z,97865.81
2023-03-12T00:19:09.087Z,97865.44
2023-03-12T00:22:12.201Z,97856.47
2023-03-12T00:25:17.733Z,97852.25
2023-03-12T00:28:20.577Z,97859.34
2023-03-12T00:31:26.121Z,97859.00
2023-03-12T00:34:28.992Z,97859.81
2023-03-12T00:37:33.113Z,97858.53
2023-03-12T00:40:39.288Z,97854.91
2023-03-12T00:43:42.189Z,97853.94
2023-03-12T00:46:45.077Z,97850.72
2023-03-12T00:49:47.893Z,97842.44
2023-03-12T00:52:51.253Z,97846.56
2023-03-12T00:55:55.504Z,97855.34
2023-03-12T00:58:58.850Z,97849.47
2023-03-12T01:02:01.592Z,97846.84
2023-03-12T01:05:05.160Z,97849.19
2023-03-12T01:08:08.602Z,97847.13
2023-03-12T01:11:16.434Z,97843.91
2023-03-12T01:14:19.232Z,97848.09
2023-03-12T01:17:22.333Z,97844.03
2023-03-12T01:20:25.254Z,97842.34
2023-03-12T01:23:28.095Z,97844.75
2023-03-12T01:26:32.180Z,97849.03
2023-03-12T01:29:35.043Z,97841.09
2023-03-12T01:32:38.019Z,97845.94
2023-03-12T01:35:42.468Z,97844.47
2023-03-12T01:38:45.462Z,97846.44
2023-03-12T01:41:49.819Z,97848.03
2023-03-12T01:44:54.552Z,97851.19
2023-03-12T01:47:57.409Z,97852.38
2023-03-12T01:51:01.391Z,97847.94
2023-03-12T01:54:08.724Z,97846.00
2023-03-12T01:57:16.990Z,97842.38
2023-03-12T02:00:22.861Z,97844.31
2023-03-12T02:03:25.898Z,97844.47
2023-03-12T02:06:36.157Z,97845.66
2023-03-12T02:09:43.075Z,97840.50
2023-03-12T02:12:47.312Z,97841.56
2023-03-12T02:15:50.228Z,97839.81
2023-03-12T02:18:55.636Z,97838.22
2023-03-12T02:21:59.640Z,97836.72
2023-03-12T02:25:07.865Z,97829.94
2023-03-12T02:28:15.851Z,97829.69
2023-03-12T02:31:22.209Z,97832.47
2023-03-12T02:34:25.067Z,97831.66
2023-03-12T02:37:28.056Z,97839.72
2023-03-12T02:40:36.680Z,97824.41
2023-03-12T02:43:43.455Z,97830.03
2023-03-12T02:46:49.600Z,97831.88
2023-03-12T02:49:53.684Z,97836.03
2023-03-12T02:52:56.561Z,97833.94
2023-03-12T02:55:59.399Z,97831.66
2023-03-12T02:59:04.546Z,97829.00
2023-03-12T03:02:09.604Z,97836.94
2023-03-12T03:05:13.177Z,97832.00
2023-03-12T03:08:16.052Z,97826.59
2023-03-12T03:11:19.121Z,97825.44
2023-03-12T03:14:23.421Z,97813.34
2023-03-12T03:17:26.592Z,97814.63
2023-03-12T03:20:29.500Z,97805.19
2023-03-12T03:23:32.858Z,97806.22
2023-03-12T03:26:35.629Z,97800.84
2023-03-12T03:29:40.216Z,97799.81
2023-03-12T03:32:43.542Z,97808.44
2023-03-12T03:35:46.761Z,97809.69
2023-03-12T03:38:50.550Z,97807.03
2023-03-12T03:41:53.482Z,97807.50
2023-03-12T03:44:57.679Z,97800.59
2023-03-12T03:48:00.667Z,97807.16
2023-03-12T03:51:05.099Z,97804.84
2023-03-12T03:54:08.040Z,97807.50
2023-03-12T03:57:10.990Z,97807.84
2023-03-12T04:00:17.929Z,97801.75
2023-03-12T04:03:20.749Z,97790.59
2023-03-12T04:06:24.238Z,97784.16
2023-03-12T04:09:27.120Z,97781.63
2023-03-12T04:12:30.020Z,97780.16
2023-03-12T04:15:34.420Z,97786.47
2023-03-12T04:18:37.475Z,97794.16
2023-03-12T04:21:40.537Z,97783.56
2023-03-12T04:24:43.357Z,97791.66
2023-03-12T04:27:46.261Z,97794.97
2023-03-12T04:30:59.681Z,97794.28
2023-03-12T04:34:02.724Z,97794.06
2023-03-12T04:37:05.560Z,97798.66
2023-03-12T04:40:09.948Z,97787.75
2023-03-12T04:43:12.893Z,97792.56
2023-03-12T04:46:17.162Z,97795.66
2023-03-12T04:49:20.013Z,97789.09
2023-03-12T04:52:22.778Z,97792.44
2023-03-12T04:55:25.628Z,97781.81
2023-03-12T04:58:28.768Z,97776.75
2023-03-12T05:01:35.164Z,97784.09
2023-03-12T05:04:38.264Z,97781.81
2023-03-12T05:07:41.137Z,97789.53
2023-03-12T05:10:45.897Z,97779.03
2023-03-12T05:13:49.200Z,97773.84
2023-03-12T05:16:53.377Z,97778.00
2023-03-12T05:19:56.379Z,97783.06
2023-03-12T05:22:59.135Z,97775.59
2023-03-12T05:26:01.996Z,97781.22
2023-03-12T05:29:06.390Z,97785.03
2023-03-12T05:32:10.715Z,97777.16
2023-03-12T05:35:13.723Z,97779.25
2023-03-12T05:38:16.586Z,97780.28
2023-03-12T05:41:21.437Z,97779.31
2023-03-12T05:44:25.168Z,97774.84
2023-03-12T05:47:30.089Z,97795.44
2023-03-12T05:50:33.101Z,97797.25
2023-03-12T05:53:36.029Z,97795.63
2023-03-12T05:56:39.074Z,97799.91
2023-03-12T05:59:41.872Z,97795.50
2023-03-12T06:02:46.193Z,97798.56
2023-03-12T06:05:49.017Z,97794.72
2023-03-12T06:08:52.590Z,97792.19
2023-03-12T06:11:55.516Z,97790.34
2023-03-12T06:14:58.844Z,97786.25
2023-03-12T06:18:03.087Z,97785.94
2023-03-12T06:21:10.896Z,97785.44
2023-03-12T06:24:13.765Z,97790.16
2023-03-12T06:27:17.457Z,97779.78
2023-03-12T06:30:20.303Z,97778.09
2023-03-12T06:33:24.457Z,97774.06
2023-03-12T06:36:27.195Z,97772.22
2023-03-12T06:39:30.362Z,97766.69
2023-03-12T06:42:33.215Z,97770.16
2023-03-12T06:45:35.984Z,97763.22
2023-03-12T06:48:41.581Z,97762.91
2023-03-12T06:51:44.890Z,97756.47
2023-03-12T06:54:47.709Z,97766.50
2023-03-12T06:57:50.552Z,97775.09
2023-03-12T07:00:54.363Z,97779.13
2023-03-12T07:03:58.500Z,97782.59
2023-03-12T07:07:01.198Z,97770.94
2023-03-12T07:10:04.066Z,97775.91
2023-03-12T07:13:07.130Z,97772.06
2023-03-12T07:16:10.456Z,97770.09
2023-03-12T07:19:14.965Z,97775.34
2023-03-12T07:22:18.027Z,97770.88
2023-03-12T07:25:20.971Z,97783.06
2023-03-12T07:28:24.151Z,97786.53
2023-03-12T07:31:27.077Z,97792.56
2023-03-12T07:34:31.482Z,97787.84
2023-03-12T07:37:34.381Z,97787.91
2023-03-12T07:40:37.839Z,97787.25
2023-03-12T07:43:40.735Z,97781.41
2023-03-12T07:46:44.498Z,97783.00
2023-03-12T07:49:49.384Z,97782.97
2023-03-12T07:52:52.520Z,97778.78
2023-03-12T07:55:56.243Z,97778.06
2023-03-12T07:58:59.162Z,97789.25
2023-03-12T08:02:02.368Z,97788.00
2023-03-12T08:05:07.210Z,97787.34
2023-03-12T08:08:10.190Z,97790.38
2023-03-12T08:11:12.987Z,97787.09
2023-03-12T08:14:15.936Z,97790.97
2023-03-12T08:17:18.797Z,97790.47
2023-03-12T08:20:23.089Z,97786.03
2023-03-12T08:23:26.686Z,97800.03
2023-03-12T08:26:29.540Z,97794.56
2023-03-12T08:29:33.550Z,97793.44
2023-03-12T08:32:36.566Z,97800.06
2023-03-12T08:35:40.934Z,97794.97
2023-03-12T08:38:43.920Z,97805.13
2023-03-12T08:41:46.822Z,97806.56
2023-03-12T08:44:49.930Z,97791.56
2023-03-12T08:47:52.813Z,97794.91
2023-03-12T08:50:58.004Z,97811.31
2023-03-12T08:54:00.717Z,97801.06
2023-03-12T08:57:03.762Z,97801.22
2023-03-12T09:00:12.488Z,97789.56
2023-03-12T09:03:15.355Z,97788.34
2023-03-12T09:06:19.618Z,97786.03
2023-03-12T09:09:22.444Z,97789.06
2023-03-12T09:12:25.847Z,97787.53
2023-03-12T09:15:28.880Z,97791.63
2023-03-12T09:18:31.906Z,97782.22
2023-03-12T09:21:36.087Z,97791.41
2023-03-12T09:40:48.451Z,97799.41
2023-03-12T09:43:56.572Z,97800.78
2023-03-12T09:47:03.447Z,97798.41
2023-03-12T09:50:17.955Z,97802.44
2023-03-12T09:53:29.194Z,97796.91
2023-03-12T09:56:32.713Z,97796.16
2023-03-12T09:59:36.952Z,97797.22
2023-03-12T10:03:09.759Z,97802.59
2023-03-12T10:06:15.812Z,97801.84
2023-03-12T10:09:56.653Z,97808.06
2023-03-12T10:13:23.446Z,97801.19
2023-03-12T10:16:40.854Z,97798.31
2023-03-12T10:20:07.686Z,97805.03
2023-03-12T10:23:14.562Z,97795.19
2023-03-12T10:26:25.701Z,97800.28
2023-03-12T10:29:33.081Z,97803.00
2023-03-12T10:32:41.678Z,97789.91
2023-03-12T10:35:44.530Z,97804.34
2023-03-12T10:38:48.627Z,97818.22
2023-03-12T10:41:53.105Z,97811.25
2023-03-12T10:45:00.224Z,97819.28
2023-03-12T10:48:04.911Z,97827.25
2023-03-12T10:51:09.921Z,97826.69
2023-03-12T10:54:22.813Z,97837.13
2023-03-12T10:57:40.653Z,97847.31
2023-03-12T11:00:57.782Z,97845.97
2023-03-12T11:04:10.972Z,97840.38
2023-03-12T11:07:26.137Z,97841.91
2023-03-12T11:10:41.815Z,97840.50
2023-03-12T11:13:45.990Z,97831.31
2023-03-12T11:16:49.542Z,97832.75
2023-03-12T11:19:52.776Z,97841.38
2023-03-12T11:22:55.524Z,97837.75
2023-03-12T11:26:01.893Z,97839.25
2023-03-12T11:29:13.096Z,97832.47
2023-03-12T11:32:19.154Z,97824.84
2023-03-12T11:35:40.171Z,97828.47
2023-03-12T11:38:49.017Z,97831.22
2023-03-12T11:42:09.779Z,97822.13
2023-03-12T11:45:27.737Z,97831.22
2023-03-12T11:48:39.057Z,97827.91
2023-03-12T11:51:52.987Z,97819.03
2023-03-12T11:55:22.374Z,97835.06
2023-03-12T11:58:40.665Z,97823.63
2023-03-12T12:01:59.185Z,97831.16
2023-03-12T12:05:20.305Z,97834.38
2023-03-12T12:08:40.580Z,97823.91
2023-03-12T12:11:56.217Z,97817.84
2023-03-12T12:15:10.263Z,97796.44
2023-03-12T12:18:34.421Z,97811.91
2023-03-12T12:21:52.208Z,97800.66
2023-03-12T12:25:17.976Z,97802.03
2023-03-12T12:28:32.793Z,97798.91
2023-03-12T12:31:41.432Z,97789.22
2023-03-12T12:35:08.949Z,97793.09
2023-03-12T12:38:15.591Z,97790.25
2023-03-12T12:41:21.630Z,97792.91
2023-03-12T12:44:28.582Z,97793.88
2023-03-12T12:47:41.529Z,97790.31
2023-03-12T12:50:47.282Z,97793.06
2023-03-12T12:53:57.285Z,97792.69
2023-03-12T12:57:06.306Z,97804.75
2023-03-12T13:00:24.004Z,97791.22
2023-03-12T13:03:29.252Z,97791.56
2023-03-12T13:06:55.198Z,97799.91
2023-03-12T13:09:59.551Z,97798.16
2023-03-12T13:13:10.266Z,97811.91
2023-03-12T13:16:29.132Z,97813.88
2023-03-12T13:19:31.847Z,97823.88
2023-03-12T13:23:00.426Z,97815.81
2023-03-12T13:26:07.734Z,97806.94
2023-03-12T13:29:20.924Z,97811.06
2023-03-12T13:33:01.607Z,97799.22
2023-03-12T13:36:12.625Z,97799.28
2023-03-12T13:39:31.945Z,97787.31
2023-03-12T13:42:41.732Z,97786.41
2023-03-12T13:46:00.692Z,97786.41
2023-03-12T13:49:10.498Z,97793.44
2023-03-12T13:52:26.352Z,97789.81
2023-03-12T13:55:31.867Z,97783.81
2023-03-12T13:58:43.203Z,97779.50
2023-03-12T14:01:49.958Z,97774.44
2023-03-12T14:04:53.096Z,97776.81
2023-03-12T14:08:04.045Z,97791.75
2023-03-12T14:11:23.682Z,97799.91
2023-03-12T14:15:00.399Z,97806.00
2023-03-12T14:18:10.488Z,97812.75
2023-03-12T14:21:17.106Z,97807.56
2023-03-12T14:24:26.409Z,97809.28
2023-03-12T14:27:33.440Z,97814.00
2023-03-12T14:30:48.763Z,97821.53
2023-03-12T14:33:57.030Z,97809.50
2023-03-12T14:37:05.775Z,97807.59
2023-03-12T14:40:19.712Z,97813.59
2023-03-12T14:43:27.529Z,97796.31
2023-03-12T14:46:30.766Z,97795.34
2023-03-12T14:49:33.538Z,97796.44
2023-03-12T14:52:36.176Z,97792.97
2023-03-12T14:55:38.792Z,97791.88
2023-03-12T14:58:46.588Z,97782.72
2023-03-12T15:01:49.897Z,97786.66
2023-03-12T15:04:56.347Z,97795.00
2023-03-12T15:08:03.302Z,97802.69
2023-03-12T15:11:05.994Z,97797.09
2023-03-12T15:14:15.140Z,97789.91
2023-03-12T15:17:19.555Z,97797.31
2023-03-12T15:20:24.411Z,97796.69
2023-03-12T15:23:30.457Z,97796.56
2023-03-12T15:26:36.322Z,97793.06
2023-03-12T15:29:42.598Z,97792.06
2023-03-12T15:33:04.799Z,97803.25
2023-03-12T15:36:21.272Z,97795.38
2023-03-12T15:39:27.293Z,97792.03
2023-03-12T15:42:30.407Z,97784.56
2023-03-12T15:45:39.250Z,97790.59
2023-03-12T15:48:48.046Z,97789.28
2023-03-12T15:52:03.372Z,97788.38
2023-03-12T15:55:23.035Z,97804.31
2023-03-12T15:58:28.400Z,97800.09
2023-03-12T16:01:45.424Z,97800.59
2023-03-12T16:04:48.085Z,97793.63
2023-03-12T16:07:50.765Z,97796.81
2023-03-12T16:10:55.418Z,97788.53
2023-03-12T16:14:04.104Z,97785.13
2023-03-12T16:17:14.366Z,97787.16
2023-03-12T16:20:18.419Z,97791.38
2023-03-12T16:23:21.086Z,97785.94
2023-03-12T16:26:23.719Z,97787.06
2023-03-12T16:29:31.636Z,97778.13
2023-03-12T16:32:36.780Z,97778.97
2023-03-12T16:35:39.457Z,97789.00
2023-03-12T16:38:42.413Z,97787.25
2023-03-12T16:41:45.138Z,97789.59
2023-03-12T16:44:48.164Z,97794.53
2023-03-12T16:47:56.054Z,97791.56
2023-03-12T16:50:59.005Z,97794.00
2023-03-12T16:54:10.420Z,97778.50
2023-03-12T16:57:23.299Z,97779.66
2023-03-12T17:00:29.004Z,97782.13
2023-03-12T17:03:37.113Z,97778.06
2023-03-12T17:06:41.295Z,97785.31
2023-03-12T17:09:43.912Z,97785.91
2023-03-12T17:12:48.351Z,97796.06
2023-03-12T17:15:51.616Z,97789.47
2023-03-12T17:18:55.863Z,97795.63
2023-03-12T17:21:58.536Z,97802.41
2023-03-12T17:25:01.140Z,97801.38
2023-03-12T17:28:03.901Z,97806.94
2023-03-12T17:31:06.980Z,97800.88
2023-03-12T17:34:11.038Z,97816.25
2023-03-12T17:37:13.794Z,97817.19
2023-03-12T17:40:16.959Z,97808.00
2023-03-12T17:43:19.904Z,97806.44
2023-03-12T17:46:22.701Z,97805.94
2023-03-12T17:49:26.812Z,97816.78
2023-03-12T17:52:31.760Z,97819.31
2023-03-12T17:55:35.323Z,97826.59
2023-03-12T17:58:38.021Z,97827.13
2023-03-12T18:01:40.708Z,97813.47
2023-03-12T18:04:45.018Z,97811.59
2023-03-12T18:07:49.092Z,97819.53
2023-03-12T18:10:51.744Z,97829.75
2023-03-12T18:13:54.568Z,97826.59
2023-03-12T18:16:57.268Z,97827.81
2023-03-12T18:20:01.314Z,97825.25
2023-03-12T18:23:03.937Z,97830.16
2023-03-12T18:26:06.735Z,97837.13
2023-03-12T18:29:09.376Z,97836.59
2023-03-12T18:32:12.172Z,97845.00
2023-03-12T18:35:16.436Z,97844.22
2023-03-12T18:38:19.510Z,97842.66
2023-03-12T18:41:28.615Z,97844.00
2023-03-12T18:44:31.446Z,97850.97
2023-03-12T18:47:34.851Z,97851.78
2023-03-12T18:50:38.982Z,97859.31
2023-03-12T18:53:41.654Z,97845.66
2023-03-12T18:56:44.293Z,97851.53
2023-03-12T18:59:47.132Z,97850.09
2023-03-12T19:02:49.832Z,97838.09
2023-03-12T19:06:03.264Z,97845.91
2023-03-12T19:09:05.944Z,97844.28
2023-03-12T19:12:08.956Z,97843.47
2023-03-12T19:15:12.929Z,97846.53
2023-03-12T19:18:15.641Z,97847.66
2023-03-12T19:21:19.636Z,97863.06
2023-03-12T19:24:22.404Z,97861.56
2023-03-12T19:27:25.192Z,97867.81
2023-03-12T19:30:30.602Z,97870.56
2023-03-12T19:33:33.861Z,97858.81
2023-03-12T19:36:37.787Z,97859.97
2023-03-12T19:39:40.478Z,97863.00
2023-03-12T19:42:43.112Z,97862.78
2023-03-12T19:45:46.226Z,97872.44
2023-03-12T19:48:49.891Z,97874.34
2023-03-12T19:51:53.835Z,97872.25
2023-03-12T19:55:04.347Z,97881.63
2023-03-12T19:58:08.299Z,97880.00
2023-03-12T20:01:11.060Z,97881.06
2023-03-12T20:04:13.728Z,97872.47
2023-03-12T20:07:18.470Z,97874.88
2023-03-12T20:10:21.606Z,97857.69
2023-03-12T20:13:24.258Z,97858.97
2023-03-12T20:16:26.973Z,97859.50
2023-03-12T20:19:29.952Z,97864.34
2023-03-12T20:22:36.185Z,97870.75
2023-03-12T20:25:40.749Z,97868.88
2023-03-12T20:28:43.356Z,97865.91
2023-03-12T20:31:46.082Z,97855.00
2023-03-12T20:34:48.814Z,97865.47
2023-03-12T20:37:52.905Z,97864.47
2023-03-12T20:40:55.622Z,97866.66
2023-03-12T20:43:58.840Z,97864.50
2023-03-12T20:47:01.760Z,97874.69
2023-03-12T20:50:04.858Z,97878.97
2023-03-12T20:53:08.897Z,97868.84
2023-03-12T20:56:12.479Z,97871.50
2023-03-12T20:59:15.395Z,97877.97
2023-03-12T21:02:18.458Z,97875.84
2023-03-12T21:05:23.796Z,97871.59
2023-03-12T21:08:29.470Z,97870.81
2023-03-12T21:11:32.267Z,97876.69
2023-03-12T21:14:34.939Z,97871.34
2023-03-12T21:17:39.705Z,97867.34
2023-03-12T21:20:42.910Z,97865.97
2023-03-12T21:23:47.256Z,97861.19
2023-03-12T21:26:49.929Z,97860.38
2023-03-12T21:29:53.247Z,97862.00
2023-03-12T21:32:56.189Z,97859.31
2023-03-12T21:35:58.856Z,97863.88
2023-03-12T21:39:03.089Z,97858.50
2023-03-12T21:42:05.942Z,97861.47
2023-03-12T21:45:10.718Z,97857.97
2023-03-12T21:48:13.318Z,97859.59
2023-03-12T21:51:18.253Z,97855.88
2023-03-12T21:54:22.252Z,97849.19
2023-03-12T21:57:24.886Z,97843.34
2023-03-12T22:00:27.490Z,97841.19
2023-03-12T22:03:30.218Z,97832.66
2023-03-12T22:06:33.294Z,97846.03
2023-03-12T22:09:37.226Z,97832.41
2023-03-12T22:12:40.273Z,97831.34
2023-03-12T22:15:43.077Z,97832.69
2023-03-12T22:18:47.142Z,97827.88
2023-03-12T22:21:49.770Z,97813.44
2023-03-12T22:24:53.690Z,97808.91
2023-03-12T22:27:56.324Z,97809.97
2023-03-12T22:30:59.612Z,97802.47
2023-03-12T22:34:02.220Z,97789.41
2023-03-12T22:37:04.952Z,97791.03
2023-03-12T22:40:10.632Z,97783.81
2023-03-12T22:43:13.254Z,97776.84
2023-03-12T22:46:16.854Z,97777.66
2023-03-12T22:49:19.633Z,97775.50
2023-03-12T22:52:22.311Z,97771.78
2023-03-12T22:55:26.447Z,97769.09
2023-03-12T22:58:29.505Z,97756.28
2023-03-12T23:01:32.136Z,97758.13
2023-03-12T23:04:35.158Z,97754.13
2023-03-12T23:07:38.127Z,97753.59
2023-03-12T23:10:42.342Z,97756.53
2023-03-12T23:13:46.688Z,97760.00
2023-03-12T23:16:49.332Z,97756.81
2023-03-12T23:19:52.049Z,97755.22
2023-03-12T23:22:54.727Z,97755.22
2023-03-12T23:26:00.376Z,97748.28
2023-03-12T23:29:03.328Z,97751.44
2023-03-12T23:32:06.839Z,97750.66
2023-03-12T23:35:09.971Z,97758.38
2023-03-12T23:38:12.591Z,97750.91
2023-03-12T23:41:18.620Z,97744.50
2023-03-12T23:44:21.231Z,97746.66
2023-03-12T23:47:23.939Z,97742.91
2023-03-12T23:50:26.620Z,97748.25
2023-03-12T23:53:29.235Z,97747.44
2023-03-12T23:56:35.518Z,97743.44
2023-03-12T23:59:38.182Z,97745.56
